Time;durP1;ratioP1;P1;durP2;ratioP2;P2;SDS_P1;SDS_P2;PMS_P1;PMS_P2;Temp;Humidity;BMP_temperature;BMP_pressure;BME280_temperature;BME280_humidity;BME280_pressure;Samples;Min_cycle;Max_cycle;Signal;HPM_P1;HPM_P2
2021/07/18 00:01:38;;;;;;;18.50;16.60;;;;;;;20.70;100.00;95822.53;5056069;28;20235;-82
2021/07/18 00:04:05;;;;;;;18.90;16.92;;;;;;;20.68;100.00;95827.22;5057362;28;20259;-84
2021/07/18 00:06:32;;;;;;;17.75;15.88;;;;;;;20.67;100.00;95823.00;5056936;28;20213;-83
2021/07/18 00:08:59;;;;;;;18.55;16.65;;;;;;;20.70;100.00;95825.16;5057252;28;20202;-85
2021/07/18 00:11:30;;;;;;;18.52;16.63;;;;;;;20.72;100.00;95820.50;5056739;28;20229;-87
2021/07/18 00:14:00;;;;;;;18.60;15.95;;;;;;;20.73;100.00;95819.47;5056415;28;20209;-86
2021/07/18 00:16:26;;;;;;;17.73;15.93;;;;;;;20.72;100.00;95817.88;5056596;28;20237;-86
2021/07/18 00:18:53;;;;;;;18.52;16.63;;;;;;;20.69;100.00;95824.38;5056793;28;20204;-87
2021/07/18 00:21:20;;;;;;;18.63;15.98;;;;;;;20.69;100.00;95818.34;5055474;28;20217;-87
2021/07/18 00:23:54;;;;;;;17.52;15.65;;;;;;;20.70;100.00;95812.06;5055689;28;20202;-86
2021/07/18 00:26:21;;;;;;;19.70;15.25;;;;;;;20.64;100.00;95808.56;5056531;28;20294;-86
2021/07/18 00:28:48;;;;;;;17.83;15.90;;;;;;;20.65;100.00;95804.91;5055720;28;20261;-85
2021/07/18 00:31:14;;;;;;;19.02;15.98;;;;;;;20.65;100.00;95797.06;5054355;28;20217;-86
2021/07/18 00:33:41;;;;;;;18.38;16.58;;;;;;;20.60;100.00;95804.03;5054650;28;20209;-84
2021/07/18 00:36:07;;;;;;;16.73;15.07;;;;;;;20.55;100.00;95798.72;5055064;28;20205;-84
2021/07/18 00:38:34;;;;;;;16.33;14.65;;;;;;;20.56;100.00;95800.31;5055167;28;20205;-85
2021/07/18 00:41:01;;;;;;;16.30;14.57;;;;;;;20.64;100.00;95794.69;5055017;28;20201;-84
2021/07/18 00:43:28;;;;;;;17.05;15.25;;;;;;;20.63;100.00;95790.47;5055528;28;20209;-85
2021/07/18 00:45:56;;;;;;;17.58;14.68;;;;;;;20.61;100.00;95795.94;5055187;28;20201;-84
2021/07/18 00:48:25;;;;;;;15.75;14.35;;;;;;;20.54;100.00;95784.84;5054394;28;20198;-84
2021/07/18 00:50:52;;;;;;;16.95;15.25;;;;;;;20.60;100.00;95790.94;5054817;28;20194;-83
2021/07/18 00:53:18;;;;;;;15.75;14.13;;;;;;;20.57;100.00;95786.19;5054998;28;20221;-85
2021/07/18 00:55:45;;;;;;;16.67;15.05;;;;;;;20.63;100.00;95787.84;5054921;28;20201;-85
2021/07/18 00:58:14;;;;;;;14.65;13.25;;;;;;;20.67;100.00;95781.13;5055145;28;20743;-84
2021/07/18 01:00:41;;;;;;;15.23;13.73;;;;;;;20.62;100.00;95783.66;5054593;28;20716;-85
2021/07/18 01:03:09;;;;;;;15.65;14.05;;;;;;;20.60;100.00;95783.88;5053653;28;20309;-84
2021/07/18 01:05:35;;;;;;;15.55;13.65;;;;;;;20.63;100.00;95788.66;5053775;28;20201;-83
2021/07/18 01:08:02;;;;;;;15.40;13.68;;;;;;;20.67;100.00;95781.13;5054296;28;20205;-85
2021/07/18 01:10:30;;;;;;;16.45;14.20;;;;;;;20.69;100.00;95773.84;5054435;28;20197;-85
2021/07/18 01:12:57;;;;;;;15.90;14.20;;;;;;;20.71;100.00;95782.25;5053879;28;20273;-85
2021/07/18 01:15:25;;;;;;;14.10;12.70;;;;;;;20.66;100.00;95782.16;5054272;28;20202;-84
2021/07/18 01:17:52;;;;;;;17.23;13.32;;;;;;;20.64;100.00;95786.84;5053914;28;20679;-85
2021/07/18 01:20:18;;;;;;;14.55;13.10;;;;;;;20.64;100.00;95784.22;5054423;28;20201;-85
2021/07/18 01:22:46;;;;;;;15.30;13.73;;;;;;;20.58;100.00;95770.28;5054322;28;20217;-83
2021/07/18 01:25:14;;;;;;;14.77;13.18;;;;;;;20.56;100.00;95777.56;5053606;28;20202;-85
2021/07/18 01:27:43;;;;;;;13.82;12.35;;;;;;;20.54;100.00;95784.84;5053087;28;20205;-85
2021/07/18 01:30:12;;;;;;;16.17;13.00;;;;;;;20.60;100.00;95788.31;5053402;28;20579;-85
2021/07/18 01:32:39;;;;;;;14.60;12.95;;;;;;;20.56;100.00;95776.75;5052569;28;20229;-85
2021/07/18 01:35:06;;;;;;;14.45;13.05;;;;;;;20.51;100.00;95782.69;5053455;28;20197;-84
2021/07/18 01:37:33;;;;;;;14.27;12.93;;;;;;;20.44;100.00;95781.22;5053783;28;20197;-83
2021/07/18 01:40:01;;;;;;;15.00;12.45;;;;;;;20.47;100.00;95791.22;5053806;28;20207;-86
2021/07/18 01:42:28;;;;;;;15.00;12.02;;;;;;;20.48;100.00;95783.16;5052485;28;20231;-85
2021/07/18 01:44:55;;;;;;;12.45;11.23;;;;;;;20.53;100.00;95779.84;5053167;28;20197;-83
2021/07/18 01:47:21;;;;;;;13.27;11.88;;;;;;;20.46;100.00;95777.34;5053215;28;20204;-84
2021/07/18 01:49:47;;;;;;;14.07;11.25;;;;;;;20.50;100.00;95769.84;5052653;28;20202;-85
2021/07/18 01:52:17;;;;;;;14.90;12.10;;;;;;;20.52;100.00;95778.25;5052587;28;20228;-84
2021/07/18 01:54:43;;;;;;;12.13;10.80;;;;;;;20.53;100.00;95774.59;5053016;28;20208;-85
2021/07/18 01:57:15;;;;;;;13.10;11.52;;;;;;;20.50;100.00;95781.09;5052755;28;20205;-83
2021/07/18 01:59:42;;;;;;;13.02;11.15;;;;;;;20.48;100.00;95775.31;5053383;28;20213;-85
2021/07/18 02:02:09;;;;;;;10.68;9.73;;;;;;;20.50;100.00;95775.88;5056387;28;20229;-85
2021/07/18 02:04:36;;;;;;;11.88;10.68;;;;;;;20.48;100.00;95779.75;5055983;28;20284;-85
2021/07/18 02:07:04;;;;;;;13.32;10.77;;;;;;;20.42;100.00;95783.28;5057295;28;20193;-83
2021/07/18 02:09:30;;;;;;;12.27;10.35;;;;;;;20.45;100.00;95774.97;5058612;28;20201;-85
2021/07/18 02:11:57;;;;;;;12.15;10.07;;;;;;;20.42;100.00;95778.03;5057222;28;20227;-84
2021/07/18 02:14:25;;;;;;;13.60;10.30;;;;;;;20.39;100.00;95775.91;5058105;28;20212;-83
2021/07/18 02:16:52;;;;;;;10.55;9.63;;;;;;;20.37;100.00;95780.59;5058036;28;20205;-85
2021/07/18 02:19:19;;;;;;;10.65;9.55;;;;;;;20.34;100.00;95782.59;5057596;28;20208;-83
2021/07/18 02:21:49;;;;;;;10.10;8.93;;;;;;;20.29;100.00;95779.88;5057621;28;20235;-85
2021/07/18 02:24:16;;;;;;;10.05;9.05;;;;;;;20.28;100.00;95777.50;5058291;28;20762;-86
2021/07/18 02:26:42;;;;;;;9.63;8.82;;;;;;;20.24;100.00;95774.56;5057976;28;20201;-85
2021/07/18 02:29:09;;;;;;;10.23;8.73;;;;;;;20.28;100.00;95773.06;5058135;28;20215;-85
2021/07/18 02:31:36;;;;;;;11.93;9.40;;;;;;;20.25;100.00;95780.56;5021096;28;1036722;-85
2021/07/18 02:34:03;;;;;;;11.50;8.80;;;;;;;20.22;100.00;95775.81;5059110;28;20684;-84
2021/07/18 02:36:30;;;;;;;9.68;8.68;;;;;;;20.13;100.00;95774.59;5058946;28;20204;-83
2021/07/18 02:38:56;;;;;;;10.27;7.93;;;;;;;20.11;100.00;95772.22;5059385;28;20205;-84
2021/07/18 02:41:23;;;;;;;9.07;8.07;;;;;;;20.14;100.00;95771.75;5058043;28;20229;-85
2021/07/18 02:43:49;;;;;;;8.30;7.32;;;;;;;20.13;100.00;95762.31;5059860;28;20201;-84
2021/07/18 02:46:16;;;;;;;9.25;7.80;;;;;;;20.16;100.00;95759.25;5058325;28;20197;-85
2021/07/18 02:48:44;;;;;;;8.70;7.60;;;;;;;20.13;100.00;95764.13;5059411;28;20203;-83
2021/07/18 02:51:11;;;;;;;8.30;7.50;;;;;;;20.12;100.00;95767.78;5057889;28;20209;-85
2021/07/18 02:53:37;;;;;;;10.68;7.97;;;;;;;20.09;100.00;95768.22;5058124;28;20221;-84
2021/07/18 02:56:04;;;;;;;10.63;7.60;;;;;;;20.09;100.00;95765.63;5057816;28;20209;-85
2021/07/18 02:58:31;;;;;;;8.00;7.28;;;;;;;20.09;100.00;95768.22;5057978;28;20194;-84
2021/07/18 03:00:57;;;;;;;8.40;7.20;;;;;;;20.00;100.00;95765.19;5057317;28;20205;-84
2021/07/18 03:03:24;;;;;;;8.05;7.05;;;;;;;20.01;100.00;95767.56;5057078;28;20225;-86
2021/07/18 03:05:51;;;;;;;8.75;7.13;;;;;;;20.03;100.00;95769.94;5057664;28;20201;-86
2021/07/18 03:08:18;;;;;;;9.45;7.22;;;;;;;20.00;100.00;95773.84;5057485;28;20213;-84
2021/07/18 03:10:46;;;;;;;9.70;7.25;;;;;;;19.99;100.00;95769.63;5057063;28;20208;-86
2021/07/18 03:13:12;;;;;;;7.85;6.95;;;;;;;20.01;100.00;95774.63;5056548;28;20256;-86
2021/07/18 03:15:41;;;;;;;9.70;7.18;;;;;;;19.96;100.00;95777.94;5056455;28;20197;-85
2021/07/18 03:18:11;;;;;;;7.10;6.40;;;;;;;20.00;100.00;95773.84;5056927;28;20715;-86
2021/07/18 03:20:37;;;;;;;9.68;6.47;;;;;;;19.98;100.00;95762.03;5056661;28;20667;-86
2021/07/18 03:23:06;;;;;;;7.95;6.70;;;;;;;19.95;100.00;95763.28;5055841;28;20218;-86
2021/07/18 03:25:34;;;;;;;8.10;6.85;;;;;;;19.91;100.00;95769.19;5056704;28;20841;-86
2021/07/18 03:28:04;;;;;;;7.70;6.03;;;;;;;19.95;100.00;95765.88;5056598;28;20204;-86
2021/07/18 03:30:31;;;;;;;6.93;6.22;;;;;;;19.95;100.00;95758.03;5057332;28;20247;-86
2021/07/18 03:32:57;;;;;;;7.53;6.20;;;;;;;19.95;100.00;95762.47;5056004;28;20236;-86
2021/07/18 03:35:24;;;;;;;8.32;6.18;;;;;;;19.94;100.00;95758.28;5058027;28;20198;-86
2021/07/18 03:37:50;;;;;;;9.32;6.25;;;;;;;19.89;100.00;95756.34;5057746;28;20198;-85
2021/07/18 03:40:18;;;;;;;8.90;6.10;;;;;;;19.87;100.00;95761.00;5056885;28;20743;-86
2021/07/18 03:42:45;;;;;;;7.68;5.53;;;;;;;19.88;100.00;95759.97;5057156;28;20221;-86
2021/07/18 03:45:13;;;;;;;8.60;5.25;;;;;;;19.87;100.00;95761.00;5057584;28;20612;-86
2021/07/18 03:47:40;;;;;;;7.18;5.82;;;;;;;19.83;100.00;95764.28;5057318;28;20197;-86
2021/07/18 03:50:08;;;;;;;6.05;5.47;;;;;;;19.84;100.00;95763.28;5056541;28;20209;-86
2021/07/18 03:52:35;;;;;;;6.05;5.25;;;;;;;19.80;100.00;95768.19;5056281;28;20274;-85
2021/07/18 03:55:01;;;;;;;8.30;5.90;;;;;;;19.80;100.00;95777.84;5057239;28;20200;-86
2021/07/18 03:57:29;;;;;;;7.97;6.00;;;;;;;19.76;100.00;95776.72;5056993;28;20209;-86
2021/07/18 03:59:56;;;;;;;6.68;6.07;;;;;;;19.76;100.00;95782.72;5057792;28;20202;-86
2021/07/18 04:02:22;;;;;;;7.80;5.28;;;;;;;19.75;100.00;95775.13;5057285;28;20217;-86
2021/07/18 04:04:49;;;;;;;7.63;5.25;;;;;;;19.80;100.00;95773.41;5058431;28;20208;-85
2021/07/18 04:07:15;;;;;;;6.68;5.30;;;;;;;19.79;100.00;95768.41;5058095;28;20211;-83
2021/07/18 04:09:42;;;;;;;8.07;5.30;;;;;;;19.69;100.00;95763.75;5058194;28;20233;-84
2021/07/18 04:12:09;;;;;;;5.88;5.05;;;;;;;19.73;100.00;95774.53;5056566;28;20225;-85
2021/07/18 04:14:36;;;;;;;11.55;5.28;;;;;;;19.73;100.00;95774.53;5057477;28;20201;-86
2021/07/18 04:17:03;;;;;;;6.30;5.10;;;;;;;19.67;100.00;95769.19;5056131;28;20201;-84
2021/07/18 04:19:30;;;;;;;5.72;4.88;;;;;;;19.74;100.00;95770.91;5056817;28;20202;-84
2021/07/18 04:21:56;;;;;;;6.32;4.95;;;;;;;19.76;100.00;95777.50;5056539;28;20213;-86
2021/07/18 04:24:26;;;;;;;7.93;5.50;;;;;;;19.70;100.00;95775.78;5056919;28;20208;-85
2021/07/18 04:26:52;;;;;;;7.43;4.82;;;;;;;19.68;100.00;95777.84;5056129;28;20197;-83
2021/07/18 04:29:18;;;;;;;7.10;5.10;;;;;;;19.69;100.00;95776.03;5056242;28;20201;-84
2021/07/18 04:31:46;;;;;;;6.90;5.15;;;;;;;19.77;100.00;95783.53;5055608;28;20248;-84
2021/07/18 04:34:13;;;;;;;8.05;5.63;;;;;;;19.67;100.00;95781.47;5056036;28;20221;-85
2021/07/18 04:36:39;;;;;;;8.30;4.95;;;;;;;19.58;100.00;95783.66;5056275;28;20216;-84
2021/07/18 04:39:06;;;;;;;5.82;5.25;;;;;;;19.62;100.00;95784.00;5056423;28;20208;-83
2021/07/18 04:41:33;;;;;;;8.45;4.95;;;;;;;19.66;100.00;95787.72;5057086;28;20217;-83
2021/07/18 04:43:59;;;;;;;6.30;5.05;;;;;;;19.55;100.00;95783.31;5057099;28;20259;-86
2021/07/18 04:46:26;;;;;;;8.02;4.88;;;;;;;19.45;100.00;95785.63;5056806;28;20197;-85
2021/07/18 04:48:53;;;;;;;5.30;4.80;;;;;;;19.53;100.00;95787.97;5056657;28;20201;-84
2021/07/18 04:51:20;;;;;;;10.75;4.88;;;;;;;19.56;100.00;95784.91;5056990;28;20206;-85
2021/07/18 04:53:46;;;;;;;7.97;4.70;;;;;;;19.52;100.00;95797.59;5056788;28;20225;-84
2021/07/18 04:56:13;;;;;;;5.00;4.30;;;;;;;19.55;100.00;95796.34;5056809;28;20201;-86
2021/07/18 04:58:40;;;;;;;6.20;4.65;;;;;;;19.42;100.00;95786.91;5056828;28;20197;-86
2021/07/18 05:01:07;;;;;;;6.97;4.22;;;;;;;19.45;100.00;95796.09;5057303;28;20289;-84
2021/07/18 05:03:34;;;;;;;8.30;4.43;;;;;;;19.53;100.00;95787.97;5057137;28;20205;-83
2021/07/18 05:06:05;;;;;;;5.45;4.38;;;;;;;19.60;100.00;95794.66;5056769;28;20211;-84
2021/07/18 05:08:32;;;;;;;10.38;4.72;;;;;;;19.61;100.00;95800.69;5057321;28;20236;-86
2021/07/18 05:10:58;;;;;;;6.28;4.57;;;;;;;19.52;100.00;95794.19;5056876;28;20197;-83
2021/07/18 05:13:25;;;;;;;8.07;4.57;;;;;;;19.45;100.00;95798.69;5056128;28;20231;-83
2021/07/18 05:15:51;;;;;;;7.03;4.25;;;;;;;19.42;100.00;95793.94;5056308;28;20197;-84
2021/07/18 05:18:18;;;;;;;6.97;4.55;;;;;;;19.37;100.00;95796.44;5054164;28;20201;-84
2021/07/18 05:20:44;;;;;;;6.43;4.57;;;;;;;19.37;100.00;95794.63;5054943;28;20204;-84
2021/07/18 05:23:13;;;;;;;7.60;4.75;;;;;;;19.42;100.00;95793.94;5055187;28;20221;-83
2021/07/18 05:25:40;;;;;;;7.35;4.63;;;;;;;19.41;100.00;95795.78;5054695;28;20223;-84
2021/07/18 05:28:06;;;;;;;5.18;4.50;;;;;;;19.46;100.00;95798.47;5055192;28;20193;-85
2021/07/18 05:30:33;;;;;;;5.32;4.10;;;;;;;19.54;100.00;95805.22;5055928;28;20212;-86
2021/07/18 05:32:59;;;;;;;9.75;4.70;;;;;;;19.53;100.00;95808.84;5055608;28;20225;-83
2021/07/18 05:35:26;;;;;;;6.63;4.07;;;;;;;19.55;100.00;95814.66;5056304;28;20201;-85
2021/07/18 05:37:52;;;;;;;5.63;4.43;;;;;;;19.45;100.00;95809.94;5056721;28;20209;-85
2021/07/18 05:40:20;;;;;;;6.68;4.10;;;;;;;19.49;100.00;95808.47;5056840;28;20205;-85
2021/07/18 05:42:47;;;;;;;7.05;4.30;;;;;;;19.51;100.00;95803.84;5056206;28;20213;-85
2021/07/18 05:45:15;;;;;;;5.57;4.10;;;;;;;19.53;100.00;95814.06;5056217;28;20263;-84
2021/07/18 05:47:41;;;;;;;7.80;4.20;;;;;;;19.58;100.00;95815.00;5055577;28;20262;-85
2021/07/18 05:50:09;;;;;;;4.45;3.90;;;;;;;19.58;100.00;95816.81;5056705;28;20713;-86
2021/07/18 05:52:36;;;;;;;6.75;4.20;;;;;;;19.54;100.00;95810.44;5055101;28;20224;-85
2021/07/18 05:55:03;;;;;;;5.32;4.00;;;;;;;19.58;100.00;95815.00;5056189;28;20587;-86
2021/07/18 05:57:31;;;;;;;7.03;4.32;;;;;;;19.58;100.00;95812.38;5055962;28;20201;-83
2021/07/18 05:59:58;;;;;;;6.35;4.07;;;;;;;19.57;100.00;95816.00;5055798;28;20209;-83
2021/07/18 06:02:25;;;;;;;5.80;3.58;;;;;;;19.58;100.00;95816.81;5055883;28;20221;-86
2021/07/18 06:04:51;;;;;;;4.78;3.70;;;;;;;19.62;100.00;95818.75;5055546;28;20201;-84
2021/07/18 06:07:19;;;;;;;7.43;4.03;;;;;;;19.57;100.00;95825.66;5056366;28;20632;-83
2021/07/18 06:09:45;;;;;;;7.00;4.35;;;;;;;19.56;100.00;95824.88;5055602;28;20208;-85
2021/07/18 06:12:12;;;;;;;8.75;4.18;;;;;;;19.57;100.00;95829.06;5055792;28;20226;-83
2021/07/18 06:14:41;;;;;;;6.18;4.13;;;;;;;19.57;100.00;95823.84;5057088;28;20736;-84
2021/07/18 06:17:08;;;;;;;4.57;3.30;;;;;;;19.57;100.00;95830.88;5056142;28;20190;-85
2021/07/18 06:19:43;;;;;;;5.95;3.95;;;;;;;19.61;100.00;95832.03;5056597;28;20210;-85
2021/07/18 06:22:13;;;;;;;5.20;3.58;;;;;;;19.58;100.00;95835.09;5056252;28;20224;-85
2021/07/18 06:24:39;;;;;;;6.00;3.55;;;;;;;19.59;100.00;95826.25;5055403;28;20212;-84
2021/07/18 06:27:07;;;;;;;5.70;4.03;;;;;;;19.63;100.00;95829.97;5054011;28;20201;-86
2021/07/18 06:29:33;;;;;;;10.65;3.60;;;;;;;19.68;100.00;95832.69;5052739;28;20202;-84
2021/07/18 06:32:30;;;;;;;4.78;3.38;;;;;;;19.65;100.00;95833.94;5052967;28;20245;-84
2021/07/18 06:35:02;;;;;;;4.60;3.67;;;;;;;19.69;100.00;95833.50;5054896;28;20197;-84
2021/07/18 06:37:30;;;;;;;6.15;3.83;;;;;;;19.64;100.00;95832.34;5054669;28;20201;-87
2021/07/18 06:39:57;;;;;;;4.75;3.83;;;;;;;19.60;100.00;95833.84;5056365;28;20221;-85
2021/07/18 06:42:23;;;;;;;14.73;13.02;;;;;;;19.58;100.00;95846.34;5055832;28;20224;-87
2021/07/18 06:44:53;;;;;;;7.05;4.82;;;;;;;19.52;100.00;95846.44;5055318;28;20206;-87
2021/07/18 06:47:22;;;;;;;7.88;4.95;;;;;;;19.49;100.00;95849.47;5059096;28;20201;-85
2021/07/18 06:49:53;;;;;;;5.32;4.20;;;;;;;19.50;100.00;95849.28;5060652;28;20205;-85
2021/07/18 06:52:21;;;;;;;5.65;4.00;;;;;;;19.58;100.00;95848.16;5060634;28;20304;-86
2021/07/18 06:54:50;;;;;;;7.75;4.13;;;;;;;19.59;100.00;95857.59;5060485;28;20228;-85
2021/07/18 06:57:17;;;;;;;6.20;3.75;;;;;;;19.64;99.66;95862.91;5060598;28;20208;-86
2021/07/18 06:59:44;;;;;;;4.45;3.53;;;;;;;19.71;99.20;95855.75;5059036;28;20208;-84
2021/07/18 07:02:13;;;;;;;7.43;3.60;;;;;;;19.64;100.00;95862.91;5058429;28;20440;-86
2021/07/18 07:04:43;;;;;;;4.75;3.60;;;;;;;19.64;99.88;95861.09;5059148;28;20213;-85
2021/07/18 07:07:14;;;;;;;5.32;3.65;;;;;;;19.57;100.00;95864.84;5058518;28;20208;-85
2021/07/18 07:09:43;;;;;;;7.88;3.53;;;;;;;19.67;99.54;95865.88;5059445;28;20201;-85
2021/07/18 07:12:13;;;;;;;4.25;3.85;;;;;;;19.62;99.54;95865.78;5059083;28;20229;-85
2021/07/18 07:14:39;;;;;;;6.50;3.78;;;;;;;19.72;99.17;95873.03;5059730;28;20312;-86
2021/07/18 07:17:08;;;;;;;4.97;3.67;;;;;;;19.74;97.49;95872.81;5060410;28;20197;-85
2021/07/18 07:19:35;;;;;;;6.45;3.55;;;;;;;19.70;98.79;95877.69;5059126;28;20625;-86
2021/07/18 07:22:22;;;;;;;4.85;3.80;;;;;;;19.73;99.13;95877.25;5058142;28;20267;-86
2021/07/18 07:24:50;;;;;;;6.47;3.55;;;;;;;19.76;97.19;95876.00;5058861;28;20289;-85
2021/07/18 07:27:18;;;;;;;5.07;3.92;;;;;;;19.75;98.08;95883.03;5058452;28;20207;-84
2021/07/18 07:29:44;;;;;;;4.78;3.78;;;;;;;19.79;97.54;95878.16;5059974;28;20261;-85
2021/07/18 07:32:11;;;;;;;5.15;4.07;;;;;;;19.77;98.11;95877.59;5059067;28;20618;-86
2021/07/18 07:34:40;;;;;;;6.97;4.20;;;;;;;19.74;98.25;95884.06;5059136;28;20290;-84
2021/07/18 07:37:08;;;;;;;5.97;4.05;;;;;;;19.75;97.68;95877.81;5057546;28;20201;-84
2021/07/18 07:39:35;;;;;;;24.23;20.92;;;;;;;19.81;96.92;95876.13;5057272;28;20677;-85
2021/07/18 07:42:03;;;;;;;10.70;9.20;;;;;;;19.81;96.60;95873.50;5057619;28;20229;-86
2021/07/18 07:44:30;;;;;;;7.80;4.60;;;;;;;19.78;96.24;95881.78;5059042;28;20214;-86
2021/07/18 07:47:00;;;;;;;5.60;4.20;;;;;;;19.79;95.98;95886.00;5059169;28;20201;-84
2021/07/18 07:50:01;;;;;;;6.78;3.70;;;;;;;19.83;96.09;95882.69;5059780;28;20845;-86
2021/07/18 07:52:31;;;;;;;5.70;3.90;;;;;;;19.83;97.36;95884.50;5059941;28;20221;-84
2021/07/18 07:55:33;;;;;;;4.45;3.90;;;;;;;19.88;95.38;95882.00;5060802;28;20229;-86
2021/07/18 07:58:02;;;;;;;5.88;4.00;;;;;;;19.95;95.69;95880.88;5053903;28;20201;-86
2021/07/18 08:00:31;;;;;;;4.32;3.72;;;;;;;19.93;94.41;95879.53;5058579;28;20212;-83
2021/07/18 08:05:59;;;;;;;6.30;4.20;;;;;;;19.93;94.58;95889.97;5044466;28;20293;-85
2021/07/18 08:08:52;;;;;;;5.35;3.70;;;;;;;19.94;94.69;95886.34;5059286;28;20205;-86
2021/07/18 08:11:24;;;;;;;29.13;25.13;;;;;;;19.96;96.15;95886.91;5055441;28;20816;-84
2021/07/18 08:14:22;;;;;;;;;;;;;;;;;;;;;
2021/07/18 08:16:52;;;;;;;7.43;6.10;;;;;;;19.95;95.66;95887.94;5053133;28;20663;-84
2021/07/18 08:19:22;;;;;;;4.43;4.03;;;;;;;19.96;95.92;95890.31;5059037;28;21002;-85
2021/07/18 08:21:50;;;;;;;5.75;3.90;;;;;;;20.02;95.89;95886.78;5059326;28;20225;-85
2021/07/18 08:27:29;;;;;;;4.95;4.18;;;;;;;19.93;96.59;95893.38;5049426;28;20217;-85
2021/07/18 08:40:17;;;;;;;6.13;4.38;;;;;;;19.97;95.40;95898.97;4866263;29;20673;-84
2021/07/18 08:48:41;;;;;;;5.20;4.70;;;;;;;19.93;95.67;95909.06;4987917;28;20292;-85
2021/07/18 08:51:12;;;;;;;5.68;4.40;;;;;;;19.91;96.58;95907.69;5056354;28;20205;-85
2021/07/18 08:53:49;;;;;;;6.07;4.70;;;;;;;19.93;96.38;95908.28;5056972;28;20279;-85
2021/07/18 08:56:22;;;;;;;4.88;4.18;;;;;;;20.00;96.30;95914.19;5056377;28;20224;-85
2021/07/18 08:58:51;;;;;;;7.05;4.68;;;;;;;20.05;96.45;95909.06;5056433;28;20661;-86
2021/07/18 09:01:31;;;;;;;6.05;4.90;;;;;;;20.10;96.00;95903.94;5055488;28;20274;-84
2021/07/18 09:04:00;;;;;;;5.28;4.78;;;;;;;20.19;96.20;95901.81;5055723;28;20213;-84
2021/07/18 09:07:07;;;;;;;8.38;5.60;;;;;;;20.36;94.23;95905.31;5054934;28;20247;-84
2021/07/18 09:09:43;;;;;;;9.43;5.55;;;;;;;20.54;95.02;95909.63;5056245;28;20635;-84
2021/07/18 09:12:20;;;;;;;8.15;5.60;;;;;;;20.72;93.67;95908.66;5056239;28;20300;-84
2021/07/18 09:14:51;;;;;;;6.95;5.00;;;;;;;20.97;91.92;95909.94;5055048;28;20221;-85
2021/07/18 09:17:33;;;;;;;6.80;5.18;;;;;;;21.20;90.59;95906.47;5054980;28;20265;-84
2021/07/18 09:20:19;;;;;;;6.15;5.35;;;;;;;21.25;88.29;95906.56;5054566;28;20292;-86
2021/07/18 09:22:46;;;;;;;8.95;8.05;;;;;;;21.24;87.82;95914.66;5054526;28;20225;-85
2021/07/18 09:25:15;;;;;;;7.75;5.82;;;;;;;21.25;87.90;95911.00;5054248;28;20480;-85
2021/07/18 09:27:55;;;;;;;5.93;5.32;;;;;;;21.18;87.70;95908.47;5054161;28;20751;-84
2021/07/18 09:30:23;;;;;;;9.48;5.00;;;;;;;21.12;87.53;95916.50;5053690;28;20231;-84
2021/07/18 09:32:58;;;;;;;7.00;5.85;;;;;;;21.10;88.93;95914.13;5054887;28;20251;-84
2021/07/18 09:35:25;;;;;;;13.10;11.30;;;;;;;21.07;89.92;95916.41;5054740;28;20267;-84
2021/07/18 09:37:51;;;;;;;12.20;10.93;;;;;;;21.01;89.62;95918.91;5054413;28;20197;-85
2021/07/18 09:40:22;;;;;;;8.90;5.13;;;;;;;20.96;90.64;95921.47;5054375;28;20208;-85
2021/07/18 09:42:54;;;;;;;8.90;5.95;;;;;;;21.07;90.79;95921.63;5054164;28;20282;-85
2021/07/18 09:45:23;;;;;;;9.07;5.38;;;;;;;21.15;90.07;95921.28;5054230;28;20208;-84
2021/07/18 09:47:57;;;;;;;6.00;5.40;;;;;;;21.16;90.08;95921.03;5054271;28;20209;-84
2021/07/18 09:50:28;;;;;;;7.22;5.57;;;;;;;21.16;90.00;95917.63;5054045;28;20284;-85
2021/07/18 09:53:14;;;;;;;9.18;5.72;;;;;;;21.21;89.04;95918.53;5053698;28;20221;-85
2021/07/18 09:55:58;;;;;;;8.40;6.18;;;;;;;21.26;89.21;95923.06;5052296;28;20584;-84
2021/07/18 09:58:25;;;;;;;7.40;6.18;;;;;;;21.26;89.88;95917.81;5053033;28;20217;-85
2021/07/18 10:00:52;;;;;;;7.18;5.75;;;;;;;21.26;89.83;95915.22;5052686;28;20661;-86
2021/07/18 10:03:27;;;;;;;9.73;5.95;;;;;;;21.30;89.76;95916.34;5052463;28;20221;-84
2021/07/18 10:06:11;;;;;;;7.47;6.10;;;;;;;21.36;90.12;95920.63;5052505;28;20243;-85
2021/07/18 10:08:39;;;;;;;6.68;5.95;;;;;;;21.35;90.31;95919.84;5052073;28;20270;-85
2021/07/18 10:11:07;;;;;;;8.75;6.38;;;;;;;21.35;91.33;95922.47;5052429;28;20201;-84
2021/07/18 10:13:34;;;;;;;7.55;6.55;;;;;;;21.36;91.15;95920.63;5052576;28;20734;-84
2021/07/18 10:16:01;;;;;;;9.10;7.00;;;;;;;21.36;91.69;95915.38;5051715;28;20209;-84
2021/07/18 10:18:30;;;;;;;8.02;7.00;;;;;;;21.33;92.28;95923.72;5052636;28;20261;-84
2021/07/18 10:20:58;;;;;;;8.48;7.63;;;;;;;21.34;92.13;95920.09;5054219;28;20206;-84
2021/07/18 10:23:26;;;;;;;9.93;8.38;;;;;;;21.32;93.16;95911.66;5056796;28;20770;-85
2021/07/18 10:25:53;;;;;;;9.70;8.30;;;;;;;21.27;92.57;95922.84;5056686;28;20209;-83
2021/07/18 10:28:22;;;;;;;9.93;8.35;;;;;;;21.26;92.64;95915.22;5057488;28;20521;-84
2021/07/18 10:30:53;;;;;;;10.35;9.35;;;;;;;21.29;91.72;95909.50;5056636;28;20685;-83
2021/07/18 10:33:28;;;;;;;21.15;19.10;;;;;;;21.26;92.41;95908.16;5056425;28;20747;-84
2021/07/18 10:36:03;;;;;;;24.33;21.95;;;;;;;21.21;92.50;95913.28;5056526;28;20271;-85
2021/07/18 10:38:36;;;;;;;13.70;12.40;;;;;;;21.22;93.32;95909.63;5056537;28;20285;-86
2021/07/18 10:41:04;;;;;;;12.25;11.05;;;;;;;21.21;94.26;95921.16;5056853;28;20225;-85
2021/07/18 10:43:35;;;;;;;12.52;10.57;;;;;;;21.21;95.68;95915.13;5058231;28;20202;-86
2021/07/18 10:46:02;;;;;;;13.27;11.77;;;;;;;21.18;97.70;95924.19;5057237;28;20251;-86
2021/07/18 10:48:45;;;;;;;12.88;11.57;;;;;;;21.14;100.00;95917.06;5056928;28;20269;-84
2021/07/18 10:51:13;;;;;;;17.25;13.27;;;;;;;21.13;100.00;95912.84;5056900;28;20204;-85
2021/07/18 10:53:40;;;;;;;14.20;12.90;;;;;;;21.10;100.00;95914.13;5057643;28;20209;-85
2021/07/18 10:56:18;;;;;;;15.00;13.50;;;;;;;21.13;100.00;95915.47;5057250;28;20434;-84
2021/07/18 10:58:54;;;;;;;14.07;12.68;;;;;;;21.14;100.00;95922.31;5056870;28;20197;-83
2021/07/18 11:01:41;;;;;;;15.15;13.70;;;;;;;21.08;100.00;95924.03;5056994;28;20638;-84
2021/07/18 11:04:42;;;;;;;15.20;13.70;;;;;;;21.13;100.00;95929.38;5056650;28;20645;-85
2021/07/18 11:07:30;;;;;;;16.52;14.82;;;;;;;21.20;100.00;95922.16;5056933;28;20202;-84
2021/07/18 11:09:59;;;;;;;15.40;13.98;;;;;;;21.12;100.00;95927.78;5056756;28;20198;-84
2021/07/18 11:12:28;;;;;;;15.55;13.95;;;;;;;21.17;100.00;95929.66;5056450;28;20579;-84
2021/07/18 11:15:22;;;;;;;15.45;13.60;;;;;;;21.19;100.00;95932.84;5056564;28;20224;-84
2021/07/18 11:17:58;;;;;;;15.85;14.25;;;;;;;21.17;99.98;95927.06;5057475;28;20231;-84
2021/07/18 11:21:06;;;;;;;15.70;14.10;;;;;;;21.19;100.00;95917.94;5056604;28;20243;-86
2021/07/18 11:23:42;;;;;;;17.65;15.90;;;;;;;21.34;100.00;95914.84;5056308;28;20202;-84
2021/07/18 11:26:44;;;;;;;17.58;15.52;;;;;;;21.49;98.59;95912.47;5056361;28;20299;-85
2021/07/18 11:29:45;;;;;;;15.85;14.27;;;;;;;21.75;97.35;95907.63;5055744;28;20224;-86
2021/07/18 11:32:59;;;;;;;15.27;13.77;;;;;;;21.85;94.02;95900.72;5055454;28;20261;-87
2021/07/18 11:38:40;;;;;;;16.30;14.35;;;;;;;21.93;90.45;95889.06;5053234;28;20209;-85
2021/07/18 11:41:16;;;;;;;15.45;14.00;;;;;;;;;;5055438;28;20282;-84
2021/07/18 11:44:10;;;;;;;14.63;13.18;;;;;;;22.12;89.73;95898.28;5055648;28;20200;-85
2021/07/18 11:47:18;;;;;;;14.80;13.35;;;;;;;22.16;90.56;95894.13;5055529;28;20216;-84
2021/07/18 11:49:54;;;;;;;15.95;12.95;;;;;;;22.18;87.33;95894.66;5055463;28;20368;-84
2021/07/18 11:52:26;;;;;;;14.98;13.57;;;;;;;22.21;87.94;95885.53;5054676;28;20221;-84
2021/07/18 11:54:58;;;;;;;15.80;14.20;;;;;;;22.17;88.23;95895.72;5054148;28;20763;-84
2021/07/18 11:57:45;;;;;;;14.95;13.40;;;;;;;22.15;89.09;95884.66;5054682;28;20217;-85
2021/07/18 12:00:20;;;;;;;15.82;14.23;;;;;;;22.06;91.65;95886.13;5054990;28;20201;-85
2021/07/18 12:02:53;;;;;;;16.05;14.45;;;;;;;22.04;92.06;95878.50;5054383;28;20278;-84
2021/07/18 12:05:25;;;;;;;16.70;15.07;;;;;;;21.94;94.06;95886.16;5054861;28;20255;-84